Time;durP1;ratioP1;P1;durP2;ratioP2;P2;SDS_P1;SDS_P2;PMS_P1;PMS_P2;Temp;Humidity;BMP_temperature;BMP_pressure;BME280_temperature;BME280_humidity;BME280_pressure;Samples;Min_cycle;Max_cycle;Signal;HPM_P1;HPM_P2
2021/06/06 00:01:47;;;;;;;8.57;7.68;;;;;;;17.87;49.84;101177.84;5103250;28;20081;-68
2021/06/06 00:04:16;;;;;;;9.38;7.20;;;;;;;17.84;49.80;101176.16;5103202;28;20103;-67
2021/06/06 00:06:42;;;;;;;9.10;7.30;;;;;;;17.81;49.80;101174.47;5101589;28;20020;-68
2021/06/06 00:09:12;;;;;;;10.93;8.02;;;;;;;17.80;50.11;101177.13;5102793;28;20051;-67
2021/06/06 00:11:42;;;;;;;10.45;7.53;;;;;;;17.78;49.89;101179.78;5103325;28;20028;-67
2021/06/06 00:14:11;;;;;;;8.52;6.30;;;;;;;17.77;49.16;101177.22;5103064;28;20028;-67
2021/06/06 00:16:40;;;;;;;9.25;6.53;;;;;;;17.78;49.06;101178.94;5103089;28;20016;-68
2021/06/06 00:19:07;;;;;;;8.85;5.95;;;;;;;17.79;49.02;101176.28;5102840;28;20040;-68
2021/06/06 00:21:35;;;;;;;11.75;6.78;;;;;;;17.79;49.29;101173.66;5103050;28;20030;-67
2021/06/06 00:24:00;;;;;;;7.15;5.82;;;;;;;17.81;48.65;101179.72;5102957;28;20051;-67
2021/06/06 00:26:26;;;;;;;11.20;7.40;;;;;;;17.81;48.91;101179.72;5102931;28;20268;-68
2021/06/06 00:28:53;;;;;;;9.88;7.45;;;;;;;17.80;49.42;101180.63;5102925;28;20053;-68
2021/06/06 00:31:19;;;;;;;8.27;7.47;;;;;;;17.76;49.70;101175.50;5103156;28;20024;-68
2021/06/06 00:33:46;;;;;;;9.80;7.25;;;;;;;17.75;49.91;101184.28;5102979;28;20035;-68
2021/06/06 00:36:11;;;;;;;10.68;7.60;;;;;;;17.69;50.09;101180.91;5102683;28;20055;-67
2021/06/06 00:38:37;;;;;;;9.15;8.25;;;;;;;17.62;50.29;101179.31;5101558;28;20031;-68
2021/06/06 00:41:05;;;;;;;9.43;7.32;;;;;;;17.56;50.39;101180.34;5102785;28;20058;-68
2021/06/06 00:43:31;;;;;;;15.05;8.30;;;;;;;17.50;50.58;101182.28;5103104;28;20050;-68
2021/06/06 00:45:56;;;;;;;8.23;6.95;;;;;;;17.43;50.33;101179.81;5103106;28;20016;-68
2021/06/06 00:48:22;;;;;;;9.43;6.75;;;;;;;17.37;50.45;101185.22;5102966;28;20020;-68
2021/06/06 00:50:54;;;;;;;7.88;6.80;;;;;;;17.32;50.39;101187.94;5102946;28;20023;-68
2021/06/06 00:53:38;;;;;;;10.73;6.95;;;;;;;17.27;50.33;101186.34;5101470;28;20043;-68
2021/06/06 00:56:07;;;;;;;13.07;6.70;;;;;;;17.23;50.65;101185.53;5106253;28;20099;-68
2021/06/06 00:58:33;;;;;;;9.95;6.38;;;;;;;17.20;50.77;101177.75;5106323;28;20035;-68
2021/06/06 01:00:58;;;;;;;11.73;7.78;;;;;;;17.14;50.94;101175.28;5106520;28;20024;-68
2021/06/06 01:03:25;;;;;;;7.95;7.15;;;;;;;17.13;51.01;101179.66;5106408;28;20015;-68
2021/06/06 01:06:06;;;;;;;9.45;7.47;;;;;;;17.10;50.96;101171.84;5106169;28;20028;-67
2021/06/06 01:08:32;;;;;;;8.50;7.57;;;;;;;17.09;50.99;101170.97;5106096;28;20017;-67
2021/06/06 01:11:07;;;;;;;9.10;7.28;;;;;;;17.08;51.23;101177.13;5106077;28;20031;-68
2021/06/06 01:13:48;;;;;;;9.93;8.10;;;;;;;17.06;51.38;101180.66;5106122;28;20016;-68
2021/06/06 01:16:19;;;;;;;11.32;8.15;;;;;;;17.01;51.58;101178.16;5106037;28;20024;-68
2021/06/06 01:18:48;;;;;;;9.55;7.55;;;;;;;16.99;51.80;101174.69;5105997;28;20044;-68
2021/06/06 01:21:44;;;;;;;11.43;8.02;;;;;;;16.98;51.93;101183.47;5105895;28;20062;-67
2021/06/06 01:24:31;;;;;;;10.70;8.35;;;;;;;16.93;52.28;101180.94;5105890;28;20020;-67
2021/06/06 01:27:10;;;;;;;11.25;8.05;;;;;;;16.92;53.06;101186.22;5105781;28;20028;-68
2021/06/06 01:29:43;;;;;;;9.93;8.65;;;;;;;16.88;53.27;101176.69;5105920;28;20421;-68
2021/06/06 01:32:32;;;;;;;12.48;8.90;;;;;;;16.87;53.34;101180.22;5105954;28;20035;-68
2021/06/06 01:35:02;;;;;;;16.25;9.90;;;;;;;16.84;53.64;101181.13;5073641;28;20036;-68
2021/06/06 01:37:30;;;;;;;16.88;9.13;;;;;;;16.81;53.93;101176.84;5105594;28;20507;-68
2021/06/06 01:40:04;;;;;;;13.38;9.27;;;;;;;16.77;54.02;101174.31;5105116;28;20074;-68
2021/06/06 01:42:34;;;;;;;12.48;9.05;;;;;;;16.73;54.15;101170.91;5105463;28;20059;-68
2021/06/06 01:45:07;;;;;;;11.25;9.18;;;;;;;16.77;54.34;101179.56;5105336;28;20020;-68
2021/06/06 01:47:33;;;;;;;11.77;9.15;;;;;;;16.74;54.35;101183.13;5105215;28;20032;-67
2021/06/06 01:50:05;;;;;;;14.18;9.10;;;;;;;16.69;54.57;101174.50;5105442;28;20139;-69
2021/06/06 01:52:34;;;;;;;11.50;9.23;;;;;;;16.65;54.72;101172.81;5105432;28;20024;-69
2021/06/06 01:55:02;;;;;;;11.80;9.57;;;;;;;16.60;54.73;101173.78;5105085;28;20425;-68
2021/06/06 01:57:29;;;;;;;12.35;9.38;;;;;;;16.60;54.83;101173.78;5105187;28;20028;-68
2021/06/06 01:59:57;;;;;;;12.88;9.82;;;;;;;16.58;55.03;101175.56;5105222;28;20020;-68
2021/06/06 02:02:22;;;;;;;13.98;9.63;;;;;;;16.58;55.05;101170.31;5105228;28;20369;-68
2021/06/06 02:04:48;;;;;;;14.50;9.60;;;;;;;16.57;55.19;101176.47;5104807;28;20091;-68
2021/06/06 02:07:21;;;;;;;10.68;9.35;;;;;;;16.55;54.97;101167.78;5104942;28;20136;-68
2021/06/06 02:10:08;;;;;;;13.27;10.38;;;;;;;16.52;55.05;101167.84;5104957;28;20031;-68
2021/06/06 02:12:38;;;;;;;13.10;10.57;;;;;;;16.48;55.59;101168.81;5105051;28;20023;-68
2021/06/06 02:15:09;;;;;;;11.57;10.38;;;;;;;16.45;55.98;101174.97;5105037;28;20043;-69
2021/06/06 02:17:38;;;;;;;14.20;10.80;;;;;;;16.37;56.30;101163.78;5104608;28;20040;-68
2021/06/06 02:20:06;;;;;;;14.45;11.43;;;;;;;16.30;56.59;101164.81;5104869;28;20024;-68
2021/06/06 02:22:32;;;;;;;13.60;10.85;;;;;;;16.27;56.88;101167.47;5104733;28;20020;-68
2021/06/06 02:24:59;;;;;;;16.15;12.15;;;;;;;16.25;56.97;101159.66;5104546;28;20117;-69
2021/06/06 02:27:33;;;;;;;13.75;11.80;;;;;;;16.25;56.87;101164.03;5104445;28;20032;-68
2021/06/06 02:30:17;;;;;;;13.50;11.05;;;;;;;16.27;57.21;101162.25;5104609;28;20012;-68
2021/06/06 02:33:04;;;;;;;12.70;11.32;;;;;;;16.33;56.92;101165.63;5104629;28;20084;-67
2021/06/06 02:35:32;;;;;;;18.08;11.70;;;;;;;16.35;57.04;101163.84;5104819;28;20024;-67
2021/06/06 02:38:00;;;;;;;12.50;11.20;;;;;;;16.34;57.13;101154.22;5104436;28;20024;-67
2021/06/06 02:40:37;;;;;;;12.95;11.38;;;;;;;16.33;57.13;101155.13;5104256;28;20532;-67
2021/06/06 02:43:15;;;;;;;16.98;12.18;;;;;;;16.31;57.17;101156.91;5104659;28;20035;-68
2021/06/06 02:45:42;;;;;;;16.73;11.80;;;;;;;16.29;57.27;101153.47;5104366;28;20027;-69
2021/06/06 02:48:19;;;;;;;18.70;12.00;;;;;;;16.28;57.42;101154.34;5104277;28;20020;-67
2021/06/06 02:50:47;;;;;;;16.65;11.02;;;;;;;16.28;57.51;101149.13;5104649;28;20042;-68
2021/06/06 02:53:26;;;;;;;12.65;11.23;;;;;;;16.26;57.39;101152.66;5104292;28;20047;-68
2021/06/06 02:55:56;;;;;;;11.52;8.90;;;;;;;16.26;56.86;101145.69;5103855;28;20035;-68
2021/06/06 02:58:37;;;;;;;13.40;10.32;;;;;;;16.30;56.94;101143.84;5104164;28;20054;-67
2021/06/06 03:01:10;;;;;;;12.18;8.77;;;;;;;16.35;56.33;101142.00;5104170;28;20084;-68
2021/06/06 03:03:38;;;;;;;10.93;8.07;;;;;;;16.42;56.12;101145.34;5104209;28;20019;-68
2021/06/06 03:06:08;;;;;;;12.48;10.02;;;;;;;16.51;56.47;101141.66;5103988;28;20069;-67
2021/06/06 03:08:35;;;;;;;13.13;10.27;;;;;;;16.58;56.40;101141.50;5104092;28;20368;-68
2021/06/06 03:11:02;;;;;;;15.07;10.70;;;;;;;16.71;56.32;101143.84;5103805;28;20024;-68
2021/06/06 03:13:34;;;;;;;14.45;10.43;;;;;;;16.88;56.39;101140.84;5103994;28;20077;-68
2021/06/06 03:16:01;;;;;;;13.48;9.63;;;;;;;17.03;55.74;101139.63;5103824;28;20095;-68
2021/06/06 03:18:30;;;;;;;10.52;8.40;;;;;;;17.28;55.62;101136.44;5103089;28;20043;-67
2021/06/06 03:21:04;;;;;;;10.60;9.38;;;;;;;17.49;54.90;101134.19;5103883;28;20027;-68
2021/06/06 03:23:31;;;;;;;10.07;9.02;;;;;;;17.72;54.27;101130.06;5103809;28;20031;-67
2021/06/06 03:26:01;;;;;;;11.80;8.10;;;;;;;17.86;53.37;101139.34;5103322;28;20023;-68
2021/06/06 03:28:32;;;;;;;13.38;10.10;;;;;;;17.94;53.50;101137.34;5103898;28;20012;-67
2021/06/06 03:31:04;;;;;;;9.18;7.90;;;;;;;17.97;53.33;101147.81;5103597;28;20030;-67
2021/06/06 03:33:53;;;;;;;11.48;8.65;;;;;;;17.99;53.21;101140.72;5103632;28;20020;-68
2021/06/06 03:36:31;;;;;;;10.40;7.65;;;;;;;18.11;53.39;101144.78;5103536;28;20032;-68
2021/06/06 03:38:58;;;;;;;11.05;7.50;;;;;;;18.25;52.72;101156.69;5103585;28;20441;-67
2021/06/06 03:41:26;;;;;;;9.23;7.53;;;;;;;18.25;52.45;101149.66;5103874;28;20059;-68
2021/06/06 03:43:52;;;;;;;9.02;7.50;;;;;;;18.17;52.43;101152.53;5102401;28;20026;-68
2021/06/06 03:46:19;;;;;;;10.15;7.22;;;;;;;18.21;52.58;101155.94;5103879;28;20391;-68
2021/06/06 03:48:44;;;;;;;8.73;7.72;;;;;;;18.32;52.83;101145.94;5103940;28;20012;-69
2021/06/06 03:51:10;;;;;;;10.82;7.72;;;;;;;18.51;52.35;101155.06;5103969;28;20024;-68
2021/06/06 03:53:38;;;;;;;9.20;7.40;;;;;;;18.56;52.02;101153.16;5103787;28;20030;-68
2021/06/06 03:56:05;;;;;;;10.73;7.55;;;;;;;18.69;51.91;101151.88;5103416;28;20039;-69
2021/06/06 03:58:31;;;;;;;9.85;7.90;;;;;;;18.98;51.56;101161.53;5103654;28;20031;-68
2021/06/06 04:00:56;;;;;;;10.68;7.88;;;;;;;19.16;51.08;101155.72;5103702;28;20428;-68
2021/06/06 04:03:22;;;;;;;11.70;7.28;;;;;;;19.56;50.38;101148.25;5102354;28;20024;-68
2021/06/06 04:05:48;;;;;;;9.48;7.75;;;;;;;19.96;49.65;101150.38;5103720;28;20028;-68
2021/06/06 04:08:15;;;;;;;11.35;7.65;;;;;;;20.38;49.29;101161.22;5103667;28;20263;-68
2021/06/06 04:10:41;;;;;;;10.35;7.70;;;;;;;21.02;48.43;101164.88;5103467;28;20020;-67
2021/06/06 04:13:07;;;;;;;10.23;7.70;;;;;;;21.76;46.61;101157.44;5103789;28;20031;-67
2021/06/06 04:15:33;;;;;;;9.88;7.40;;;;;;;22.37;45.16;101151.25;5103444;28;20032;-67
2021/06/06 04:18:27;;;;;;;12.80;7.30;;;;;;;22.95;44.64;101145.94;5103283;28;20036;-66
2021/06/06 04:20:54;;;;;;;10.50;7.18;;;;;;;23.87;43.19;101151.94;5103011;28;20067;-66
2021/06/06 04:23:21;;;;;;;8.10;7.22;;;;;;;24.31;42.10;101152.31;5103434;28;20024;-67
2021/06/06 04:25:47;;;;;;;8.32;7.10;;;;;;;24.54;41.25;101163.44;5101883;28;20027;-67
2021/06/06 04:28:13;;;;;;;8.43;7.10;;;;;;;24.80;40.62;101154.00;5104141;28;20024;-67
2021/06/06 04:30:40;;;;;;;9.23;7.00;;;;;;;25.14;40.12;101153.88;5107490;28;20059;-66
2021/06/06 04:33:09;;;;;;;10.60;7.15;;;;;;;25.78;39.07;101149.28;5107409;28;20024;-66
2021/06/06 04:35:36;;;;;;;7.45;6.40;;;;;;;26.48;37.79;101150.28;5107244;28;20028;-66
2021/06/06 04:38:02;;;;;;;10.40;7.45;;;;;;;27.15;36.89;101151.31;5107081;28;20024;-67
2021/06/06 04:40:29;;;;;;;9.55;6.70;;;;;;;27.72;35.66;101151.06;5106859;28;20376;-66
2021/06/06 04:42:55;;;;;;;9.13;7.03;;;;;;;28.12;34.81;101144.72;5107210;28;20036;-68
2021/06/06 04:45:20;;;;;;;7.93;6.75;;;;;;;28.59;33.87;101146.75;5106921;28;20107;-66
2021/06/06 04:47:46;;;;;;;9.00;7.75;;;;;;;29.08;33.00;101144.03;5106988;28;20024;-67
2021/06/06 04:50:13;;;;;;;9.55;6.50;;;;;;;29.59;31.96;101147.34;5106930;28;20027;-66
2021/06/06 04:52:39;;;;;;;8.07;6.32;;;;;;;30.06;31.18;101141.03;5106928;28;20024;-67
2021/06/06 04:55:08;;;;;;;6.88;5.80;;;;;;;30.32;30.50;101140.78;5106784;28;20027;-67
2021/06/06 04:57:33;;;;;;;11.25;6.53;;;;;;;30.61;30.03;101156.25;5107154;28;20609;-67
2021/06/06 04:59:59;;;;;;;9.77;6.78;;;;;;;31.01;29.36;101146.75;5106828;28;20047;-66
2021/06/06 05:02:24;;;;;;;7.60;6.80;;;;;;;31.57;28.65;101151.91;5105545;28;20053;-68
2021/06/06 05:04:49;;;;;;;9.32;5.70;;;;;;;31.99;27.30;101147.47;5106864;28;20032;-68
2021/06/06 05:07:15;;;;;;;7.57;4.80;;;;;;;32.13;26.53;101143.53;5106761;28;20425;-67
2021/06/06 05:09:40;;;;;;;6.32;4.72;;;;;;;32.35;24.97;101144.31;5105116;28;20043;-68
2021/06/06 05:12:09;;;;;;;6.85;4.07;;;;;;;32.69;23.96;101154.69;5106845;28;20034;-68
2021/06/06 05:14:34;;;;;;;6.63;4.43;;;;;;;33.10;23.53;101153.72;5106696;28;20339;-68
2021/06/06 05:16:59;;;;;;;4.55;3.92;;;;;;;33.18;22.24;101153.81;5106326;28;20326;-67
2021/06/06 05:19:25;;;;;;;5.97;4.88;;;;;;;33.57;22.29;101152.88;5106545;28;20028;-69
2021/06/06 05:21:50;;;;;;;11.32;5.90;;;;;;;33.47;24.08;101152.06;5106495;28;20568;-69
2021/06/06 05:24:16;;;;;;;9.23;6.43;;;;;;;33.52;24.40;101152.47;5106317;28;20020;-69
2021/06/06 05:26:41;;;;;;;7.38;5.97;;;;;;;33.73;23.63;101159.50;5106121;28;20652;-68
2021/06/06 05:29:06;;;;;;;5.15;4.40;;;;;;;33.35;23.08;101152.25;5106458;28;20016;-68
2021/06/06 05:31:35;;;;;;;4.80;3.70;;;;;;;33.65;21.36;101154.00;5106309;28;20078;-68
2021/06/06 05:34:01;;;;;;;4.75;3.33;;;;;;;34.04;20.58;101145.78;5105011;28;20031;-67
2021/06/06 05:36:29;;;;;;;5.20;3.50;;;;;;;34.33;19.75;101152.81;5106088;28;20024;-68
2021/06/06 05:38:54;;;;;;;5.10;2.90;;;;;;;34.32;19.30;101159.22;5104829;28;20080;-68
2021/06/06 05:41:20;;;;;;;4.50;2.63;;;;;;;34.24;18.67;101161.81;5105142;28;20051;-69
2021/06/06 05:43:45;;;;;;;3.60;3.10;;;;;;;34.54;18.90;101151.69;5104765;28;20023;-68
2021/06/06 05:46:14;;;;;;;6.32;3.20;;;;;;;35.15;18.49;101147.47;5105921;28;20080;-68
2021/06/06 05:48:40;;;;;;;5.20;3.25;;;;;;;35.31;18.03;101162.97;5105832;28;20081;-68
2021/06/06 05:51:05;;;;;;;6.32;3.55;;;;;;;35.14;17.93;101157.44;5105904;28;20020;-68
2021/06/06 05:53:35;;;;;;;5.90;2.88;;;;;;;35.20;17.89;101158.66;5105912;28;20413;-67
2021/06/06 05:56:04;;;;;;;5.57;3.30;;;;;;;35.32;17.40;101164.69;5105415;28;20054;-67
2021/06/06 05:58:30;;;;;;;4.35;3.50;;;;;;;35.25;17.66;101163.59;5105881;28;20032;-68
2021/06/06 06:00:55;;;;;;;5.72;3.30;;;;;;;35.31;17.30;101165.66;5105935;28;20024;-69
2021/06/06 06:03:21;;;;;;;5.13;3.40;;;;;;;35.20;17.87;101159.53;5105754;28;20024;-70
2021/06/06 06:05:47;;;;;;;5.65;3.80;;;;;;;35.05;17.85;101169.19;5105412;28;20032;-68
2021/06/06 06:08:23;;;;;;;5.65;3.90;;;;;;;34.75;18.70;101169.44;5105747;28;20165;-68
2021/06/06 06:10:52;;;;;;;5.80;3.70;;;;;;;35.10;18.05;101170.41;5105268;28;20487;-68
2021/06/06 06:13:23;;;;;;;6.80;3.70;;;;;;;35.24;18.50;101168.19;5105571;28;20162;-67
2021/06/06 06:15:49;;;;;;;5.55;3.55;;;;;;;35.52;17.81;101172.53;5105512;28;20035;-68
2021/06/06 06:18:17;;;;;;;3.80;3.35;;;;;;;35.65;17.63;101169.41;5104635;28;20032;-67
2021/06/06 06:20:42;;;;;;;5.85;3.50;;;;;;;35.45;17.68;101177.75;5105408;28;20016;-68
2021/06/06 06:23:08;;;;;;;5.88;4.07;;;;;;;35.59;17.84;101179.00;5104071;28;20043;-68
2021/06/06 06:25:33;;;;;;;8.80;3.90;;;;;;;35.51;17.55;101174.41;5105027;28;20429;-66
2021/06/06 06:27:58;;;;;;;5.97;3.50;;;;;;;35.67;17.41;101167.41;5105059;28;20032;-69
2021/06/06 06:30:31;;;;;;;5.97;3.78;;;;;;;35.71;17.62;101174.16;5105179;28;20038;-71
2021/06/06 06:32:57;;;;;;;9.43;4.13;;;;;;;35.76;17.82;101171.00;5103850;28;20263;-70
2021/06/06 06:35:22;;;;;;;6.70;3.72;;;;;;;35.66;17.76;101173.81;5104980;28;20024;-69
2021/06/06 06:37:48;;;;;;;5.55;3.45;;;;;;;35.77;17.46;101172.72;5104522;28;20437;-66
2021/06/06 06:40:15;;;;;;;4.82;3.20;;;;;;;35.59;17.39;101179.84;5104569;28;20020;-75
2021/06/06 06:42:43;;;;;;;6.72;3.50;;;;;;;35.41;17.84;101179.91;5104759;28;20087;-65
2021/06/06 06:45:13;;;;;;;5.25;3.83;;;;;;;35.43;17.33;101179.75;5104339;28;20024;-65
2021/06/06 06:47:38;;;;;;;6.95;2.90;;;;;;;35.08;17.12;101180.50;5104205;28;20024;-65
2021/06/06 06:50:06;;;;;;;4.68;2.88;;;;;;;34.98;17.00;101185.16;5104306;28;20038;-67
2021/06/06 06:52:36;;;;;;;6.25;3.47;;;;;;;34.78;16.76;101177.22;5104335;28;20032;-66
2021/06/06 06:55:12;;;;;;;4.05;2.90;;;;;;;34.85;16.92;101180.13;5104015;28;20020;-66
2021/06/06 06:57:38;;;;;;;4.13;2.92;;;;;;;35.01;17.01;101179.44;5104342;28;20047;-67
2021/06/06 07:00:13;;;;;;;4.65;3.25;;;;;;;35.18;16.81;101179.56;5104406;28;20077;-63
2021/06/06 07:02:39;;;;;;;3.30;2.72;;;;;;;35.33;16.49;101180.72;5104199;28;20024;-63
2021/06/06 07:05:06;;;;;;;3.88;2.50;;;;;;;35.68;16.57;101178.03;5104567;28;20078;-70
2021/06/06 07:07:32;;;;;;;5.32;2.97;;;;;;;35.78;16.48;101187.91;5104553;28;20028;-70
2021/06/06 07:09:58;;;;;;;4.15;2.92;;;;;;;35.84;16.25;101177.31;5104003;28;20058;-64
2021/06/06 07:12:23;;;;;;;6.18;2.90;;;;;;;35.91;15.98;101180.22;5104483;28;20032;-64
2021/06/06 07:14:48;;;;;;;6.72;2.78;;;;;;;35.77;16.19;101189.75;5104199;28;20096;-64
2021/06/06 07:17:14;;;;;;;9.13;2.75;;;;;;;35.50;16.22;101180.81;5103693;28;20158;-65
2021/06/06 07:19:39;;;;;;;4.70;2.50;;;;;;;35.36;16.19;101184.94;5104141;28;20043;-65
2021/06/06 07:22:05;;;;;;;6.10;3.00;;;;;;;35.29;16.80;101173.09;5104016;28;20040;-64
2021/06/06 07:24:31;;;;;;;4.00;2.60;;;;;;;35.37;16.12;101183.09;5103956;28;20024;-64
2021/06/06 07:27:01;;;;;;;4.88;2.80;;;;;;;35.31;16.77;101190.81;5103799;28;20404;-65
2021/06/06 07:29:28;;;;;;;4.23;2.57;;;;;;;35.25;16.48;101185.19;5103627;28;20467;-65
2021/06/06 07:31:56;;;;;;;3.80;2.55;;;;;;;35.14;16.23;101184.44;5103750;28;20512;-71
2021/06/06 07:34:27;;;;;;;6.50;2.58;;;;;;;35.04;16.41;101181.81;5103803;28;20032;-63
2021/06/06 07:36:57;;;;;;;6.78;2.70;;;;;;;34.92;16.37;101181.19;5103761;28;20047;-64
2021/06/06 07:39:23;;;;;;;4.38;2.28;;;;;;;34.94;16.39;101186.47;5103387;28;20008;-65
2021/06/06 07:41:48;;;;;;;7.63;2.90;;;;;;;34.95;16.40;101180.06;5103724;28;20024;-64
2021/06/06 07:44:15;;;;;;;5.03;3.15;;;;;;;34.92;16.93;101185.78;5103744;28;20020;-64
2021/06/06 07:46:40;;;;;;;5.22;2.90;;;;;;;35.23;16.84;101178.13;5102909;28;20088;-66
2021/06/06 07:49:06;;;;;;;5.82;3.28;;;;;;;35.59;17.09;101184.41;5103701;28;20460;-66
2021/06/06 07:51:37;;;;;;;4.32;2.63;;;;;;;35.71;15.91;101179.56;5102859;28;20040;-67
2021/06/06 07:54:04;;;;;;;3.60;2.80;;;;;;;35.77;15.95;101184.34;5103654;28;20027;-65
2021/06/06 07:56:30;;;;;;;4.32;2.65;;;;;;;35.60;15.79;101178.00;5103134;28;20133;-67
2021/06/06 07:58:55;;;;;;;5.88;2.65;;;;;;;35.40;16.29;101178.19;5103457;28;20036;-66
2021/06/06 08:01:21;;;;;;;7.28;2.55;;;;;;;35.39;16.01;101186.47;5103420;28;20404;-67
2021/06/06 08:03:51;;;;;;;5.78;2.85;;;;;;;35.17;16.27;101173.31;5105296;28;20371;-68
2021/06/06 08:06:17;;;;;;;5.00;2.75;;;;;;;35.11;16.29;101169.38;5107427;28;20327;-68
2021/06/06 08:08:43;;;;;;;6.60;2.85;;;;;;;35.11;16.61;101177.47;5107380;28;20016;-69
2021/06/06 08:11:10;;;;;;;6.97;2.65;;;;;;;35.19;16.76;101171.31;5107141;28;20478;-67
2021/06/06 08:13:37;;;;;;;6.88;2.90;;;;;;;35.35;16.12;101180.56;5107016;28;20055;-68
2021/06/06 08:16:06;;;;;;;4.00;3.00;;;;;;;35.37;16.14;101172.31;5107367;28;20024;-69
2021/06/06 08:18:39;;;;;;;4.30;3.00;;;;;;;35.33;16.55;101167.22;5107134;28;20048;-68
2021/06/06 08:21:16;;;;;;;6.80;2.83;;;;;;;35.39;16.82;101172.97;5107259;28;20039;-68
2021/06/06 08:23:42;;;;;;;4.28;3.03;;;;;;;35.57;16.27;101173.78;5107375;28;20043;-69
2021/06/06 08:26:09;;;;;;;4.80;2.63;;;;;;;35.73;16.14;101177.59;5107060;28;20116;-70
2021/06/06 08:28:35;;;;;;;4.78;3.00;;;;;;;35.55;15.77;101170.38;5107077;28;20028;-69
2021/06/06 08:31:05;;;;;;;4.20;2.95;;;;;;;35.40;15.72;101166.59;5107129;28;20024;-70
2021/06/06 08:33:34;;;;;;;6.45;2.28;;;;;;;35.45;16.06;101169.66;5107032;28;20039;-68
2021/06/06 08:36:05;;;;;;;4.50;3.08;;;;;;;35.40;16.34;101159.31;5106591;28;20024;-67
2021/06/06 08:38:31;;;;;;;6.05;3.03;;;;;;;35.46;15.62;101164.09;5106923;28;20572;-69
2021/06/06 08:41:15;;;;;;;4.47;2.60;;;;;;;35.44;15.57;101168.81;5105248;28;20475;-67
2021/06/06 08:43:41;;;;;;;5.95;3.53;;;;;;;35.45;16.01;101170.47;5107162;28;20032;-68
2021/06/06 08:46:07;;;;;;;6.28;2.50;;;;;;;35.77;16.23;101178.13;5106764;28;20043;-70
2021/06/06 08:48:32;;;;;;;5.88;3.00;;;;;;;35.96;15.83;101174.31;5106398;28;20023;-69
2021/06/06 08:51:20;;;;;;;6.40;3.25;;;;;;;35.91;15.52;101172.09;5107190;28;20309;-68
2021/06/06 08:54:00;;;;;;;3.85;3.20;;;;;;;35.97;15.24;101170.59;5106798;28;20020;-69
2021/06/06 08:56:34;;;;;;;3.78;2.90;;;;;;;36.23;15.78;101175.09;5106189;28;20016;-69
2021/06/06 08:59:05;;;;;;;5.78;2.60;;;;;;;36.37;14.96;101161.94;5106732;28;20457;-68
2021/06/06 09:01:45;;;;;;;3.00;2.70;;;;;;;36.41;15.14;101163.31;5106767;28;20034;-68
2021/06/06 09:04:18;;;;;;;6.53;2.80;;;;;;;36.51;15.21;101171.25;5106968;28;20103;-67
2021/06/06 09:06:47;;;;;;;3.88;2.85;;;;;;;36.55;15.14;101175.34;5106559;28;20110;-68
2021/06/06 09:09:14;;;;;;;3.40;2.70;;;;;;;36.78;14.82;101167.44;5106389;28;20016;-67
2021/06/06 09:11:40;;;;;;;5.18;2.80;;;;;;;36.80;14.38;101173.53;5106433;28;20028;-68
2021/06/06 09:14:06;;;;;;;4.25;2.70;;;;;;;36.99;14.78;101176.03;5106073;28;20031;-68
2021/06/06 09:16:36;;;;;;;4.13;2.58;;;;;;;36.76;14.67;101166.75;5105480;28;20020;-69
2021/06/06 09:19:09;;;;;;;5.38;2.72;;;;;;;36.40;15.33;101175.97;5106085;28;20116;-68
2021/06/06 09:21:46;;;;;;;5.20;2.42;;;;;;;36.08;15.50;101177.56;5106414;28;20028;-68
2021/06/06 09:24:13;;;;;;;4.72;2.47;;;;;;;36.07;15.24;101173.16;5106148;28;20020;-69
2021/06/06 09:26:39;;;;;;;5.45;2.47;;;;;;;36.01;16.03;101174.66;5104583;28;20095;-68
2021/06/06 09:29:20;;;;;;;6.85;2.80;;;;;;;35.97;16.16;101170.59;5105903;28;20051;-69
2021/06/06 09:31:46;;;;;;;7.00;3.10;;;;;;;36.01;15.96;101173.81;5106010;28;20038;-69
2021/06/06 09:34:26;;;;;;;3.70;2.67;;;;;;;35.94;16.04;101174.47;5105962;28;20094;-70
2021/06/06 09:37:10;;;;;;;6.43;2.72;;;;;;;35.72;15.96;101175.91;5106082;28;20028;-69
2021/06/06 09:40:01;;;;;;;4.15;2.80;;;;;;;35.69;16.40;101176.19;5105689;28;20022;-69
2021/06/06 09:42:39;;;;;;;8.60;3.40;;;;;;;35.91;16.67;101168.56;5096225;28;20051;-69
2021/06/06 09:45:07;;;;;;;4.38;2.90;;;;;;;36.06;16.29;101172.31;5105824;28;20353;-69
2021/06/06 09:47:33;;;;;;;7.70;2.75;;;;;;;35.85;15.61;101173.59;5104461;28;20035;-68
2021/06/06 09:50:28;;;;;;;4.28;2.83;;;;;;;35.73;16.29;101166.78;5105553;28;20044;-68
2021/06/06 09:52:54;;;;;;;4.75;2.90;;;;;;;35.82;16.27;101164.97;5103645;28;20044;-68
2021/06/06 09:55:34;;;;;;;3.67;2.65;;;;;;;36.05;16.24;101154.41;5105432;28;20122;-69
2021/06/06 09:58:24;;;;;;;4.07;2.60;;;;;;;35.97;14.93;101159.78;5105356;28;20032;-68
2021/06/06 10:00:53;;;;;;;5.03;2.90;;;;;;;35.79;15.86;101162.59;5105625;28;20016;-69
2021/06/06 10:03:21;;;;;;;5.60;2.58;;;;;;;35.86;16.06;101155.53;5105475;28;20031;-69
2021/06/06 10:05:48;;;;;;;3.28;2.75;;;;;;;35.84;15.97;101161.09;5103965;28;20120;-67
2021/06/06 10:08:24;;;;;;;7.38;2.72;;;;;;;35.89;15.96;101155.22;5104980;28;20095;-69
2021/06/06 10:11:06;;;;;;;7.00;3.03;;;;;;;36.08;15.97;101150.53;5103331;28;20039;-68
2021/06/06 10:13:33;;;;;;;3.28;2.90;;;;;;;36.33;15.28;101156.88;5105143;28;20027;-69
2021/06/06 10:16:05;;;;;;;10.07;2.80;;;;;;;36.29;14.97;101158.22;5105093;28;20016;-68
2021/06/06 10:18:39;;;;;;;3.53;2.60;;;;;;;36.27;14.73;101151.28;5104531;28;20039;-68
2021/06/06 10:21:14;;;;;;;4.38;2.97;;;;;;;36.34;14.83;101146.91;5105217;28;20131;-68
2021/06/06 10:23:46;;;;;;;2.78;2.30;;;;;;;36.19;14.85;101143.97;5105050;28;20031;-68
2021/06/06 10:26:17;;;;;;;6.45;2.92;;;;;;;35.78;15.76;101147.41;5104444;28;20027;-68
2021/06/06 10:28:46;;;;;;;;;;;;;;;35.62;15.68;101153.53;5105116;28;20027;-68
2021/06/06 10:31:26;;;;;;;9.02;3.22;;;;;;;35.77;15.69;101143.84;5105060;28;19926;-68
2021/06/06 10:33:57;;;;;;;5.77;2.67;;;;;;;35.91;15.98;101147.78;5104954;28;20087;-68
2021/06/06 10:36:26;;;;;;;5.47;2.90;;;;;;;35.88;15.54;101147.28;5103408;28;20637;-68
2021/06/06 10:38:52;;;;;;;3.97;2.75;;;;;;;35.78;15.73;101148.25;5104686;28;20028;-68
2021/06/06 10:41:34;;;;;;;5.32;2.10;;;;;;;35.44;15.52;101147.22;5104273;28;20134;-69
2021/06/06 10:44:08;;;;;;;5.43;2.65;;;;;;;35.19;16.22;101148.88;5104684;28;20023;-68
2021/06/06 10:46:49;;;;;;;4.07;2.35;;;;;;;35.05;16.60;101148.44;5104396;28;20030;-69
2021/06/06 10:49:29;;;;;;;3.55;2.70;;;;;;;35.05;16.12;101150.31;5104237;28;20462;-69
2021/06/06 10:52:21;;;;;;;4.03;2.35;;;;;;;35.10;16.48;101146.13;5104398;28;20047;-69
2021/06/06 10:54:49;;;;;;;4.30;2.70;;;;;;;34.83;15.87;101147.94;5092922;28;20044;-68
2021/06/06 10:57:30;;;;;;;2.88;2.22;;;;;;;34.42;16.50;101150.22;5104225;28;20324;-69
2021/06/06 11:00:02;;;;;;;5.15;3.05;;;;;;;33.57;16.77;101150.19;5102801;28;20012;-68
2021/06/06 11:02:33;;;;;;;3.13;2.80;;;;;;;32.77;17.38;101157.53;5104258;28;20059;-69
2021/06/06 11:05:04;;;;;;;5.63;2.60;;;;;;;32.02;18.00;101149.88;5104083;28;20028;-69
2021/06/06 11:07:43;;;;;;;3.65;2.33;;;;;;;31.15;18.21;101148.25;5103840;28;20040;-69
2021/06/06 11:10:34;;;;;;;4.38;2.40;;;;;;;30.68;18.85;101157.47;5103674;28;20030;-68
2021/06/06 11:13:26;;;;;;;3.50;2.80;;;;;;;30.09;19.68;101153.31;5103955;28;20035;-69
2021/06/06 11:16:00;;;;;;;5.57;2.58;;;;;;;29.50;20.08;101162.25;5103796;28;20091;-69
2021/06/06 11:18:27;;;;;;;5.70;3.45;;;;;;;29.20;21.31;101155.63;5103736;28;20398;-70
2021/06/06 11:20:55;;;;;;;4.35;2.83;;;;;;;28.72;22.13;101161.84;5103875;28;20080;-69
2021/06/06 11:23:45;;;;;;;3.78;2.63;;;;;;;28.24;22.22;101161.66;5103800;28;20028;-70
2021/06/06 11:26:25;;;;;;;3.78;2.97;;;;;;;27.78;21.75;101157.78;5103469;28;20023;-68
2021/06/06 11:29:06;;;;;;;4.45;2.70;;;;;;;27.47;21.83;101156.25;5103627;28;20046;-68
2021/06/06 11:31:36;;;;;;;5.63;2.80;;;;;;;27.06;22.58;101151.94;5103854;28;20139;-68
2021/06/06 11:34:05;;;;;;;5.35;2.97;;;;;;;26.76;22.94;101145.81;5103960;28;20024;-68
2021/06/06 11:36:36;;;;;;;7.43;3.25;;;;;;;26.51;23.82;101157.22;5103714;28;20506;-68